Richard Gonsoulin II — WDD8676 — position and weather

sailwx.info

Track history (hours):
 
Tides and Currents Weather Stations Pressure Air Temp Water Temp Dewpoint Dewpoint Depression Visibility Wind Speed Wind Dir Waves Ship Positions

Richard Gonsoulin II

Owner: LeBeouf Bros. Towing, LLC, Houma, LA. More information available from US FCC via Universal Licensing System and Coast Guard Vessel Documentation Center.

Last reported at 2017-Sep-20 02:59 UTC. Time now 2017-Sep-24 17:37 UTC.
Position N 29°33' W 094°54'.

Length 22 m; draft 3 m.

Type: Tug. MMSI: 367301310.

Date/timePositionNaut miles runAvg speedWind from/ knotsBaromVisibWave heightAir tempDewpointWater temp
2017-Sep-20 02:59N 29°33' W 094°54'3 5.8
2017-Sep-20 02:31N 29°35' W 094°56'3 6.0
2017-Sep-20 02:01N 29°38' W 094°58'3 5.5
2017-Sep-20 01:30N 29°40' W 094°59'3 5.3
2017-Sep-20 01:00N 29°42' W 095°01'1 0.3
2017-Sep-19 22:42N 29°42' W 095°02'1 5.1
2017-Sep-19 22:27N 29°44' W 095°01'5 6.3
2017-Sep-19 21:43N 29°44' W 095°07'3 0.4
2017-Sep-19 15:44N 29°45' W 095°04'3 6.0
2017-Sep-19 15:18N 29°43' W 095°01'2 0.3
2017-Sep-19 09:15N 29°42' W 095°03'0 0.0
2017-Sep-19 08:54N 29°42' W 095°03'0 0.0
2017-Sep-19 05:46N 29°42' W 095°03'2 0.1
2017-Sep-18 17:24N 29°42' W 095°01'0 0.0
2017-Sep-17 15:58N 29°42' W 095°01'2 4.6
2017-Sep-17 15:30N 29°41' W 094°59'2 5.0
2017-Sep-17 15:00N 29°39' W 094°58'1 1.3
2017-Sep-17 14:26N 29°38' W 094°58'2 4.7
2017-Sep-17 14:00N 29°36' W 094°57'3 5.8
2017-Sep-17 13:30N 29°34' W 094°55'40 3.8
2017-Sep-17 02:59N 29°41' W 094°10'2 4.7
2017-Sep-17 02:30N 29°43' W 094°08'2 4.7
2017-Sep-17 02:00N 29°44' W 094°06'3 4.6
2017-Sep-17 01:27N 29°46' W 094°03'32 5.0
2017-Sep-16 18:56N 30°04' W 093°32'2 4.4
2017-Sep-16 18:30N 30°04' W 093°30'2 4.4
2017-Sep-16 18:00N 30°04' W 093°27'2 3.8
2017-Sep-16 17:30N 30°04' W 093°25'2 4.4
2017-Sep-16 17:00N 30°04' W 093°23'2 3.2
2017-Sep-16 16:30N 30°04' W 093°21'2 4.0
2017-Sep-16 16:00N 30°06' W 093°20'3 5.2
2017-Sep-16 15:31N 30°08' W 093°20'3 5.4
2017-Sep-16 15:01N 30°11' W 093°19'3 5.7
2017-Sep-16 14:30N 30°12' W 093°16'1 2.2
2017-Sep-16 13:59N 30°13' W 093°16'0 0.6
2017-Sep-16 13:29N 30°14' W 093°15'0 0.5
2017-Sep-16 12:58N 30°14' W 093°15'0 0.0
2017-Sep-16 12:30N 30°14' W 093°15'0 0.0
2017-Sep-16 11:53N 30°14' W 093°15'0 0.0
2017-Sep-16 11:28N 30°14' W 093°15'0 0.0
2017-Sep-16 11:00N 30°14' W 093°15'0 0.0
2017-Sep-16 10:30N 30°14' W 093°15'0 0.0
2017-Sep-16 10:00N 30°14' W 093°15'0 0.0
2017-Sep-16 09:28N 30°14' W 093°15'0 0.0
2017-Sep-16 08:56N 30°14' W 093°15'0 0.0
2017-Sep-16 08:29N 30°14' W 093°15'0 0.0
2017-Sep-16 07:59N 30°14' W 093°15'0 0.0
2017-Sep-16 07:26N 30°14' W 093°15'0 0.0
2017-Sep-16 06:58N 30°14' W 093°15'0 0.0
2017-Sep-16 06:23N 30°14' W 093°15'0 0.0
2017-Sep-16 05:52N 30°14' W 093°15'0 0.0
2017-Sep-16 05:29N 30°14' W 093°15'0 0.0
2017-Sep-16 04:57N 30°14' W 093°15'0 0.0
2017-Sep-16 04:25N 30°14' W 093°15'0 0.0
2017-Sep-16 03:53N 30°14' W 093°15'0 0.0
2017-Sep-16 03:27N 30°14' W 093°15'0 0.0
2017-Sep-16 02:52N 30°14' W 093°15'0 0.0
2017-Sep-16 02:25N 30°14' W 093°15'0 0.0
2017-Sep-16 01:59N 30°14' W 093°15'0 0.0
2017-Sep-16 01:23N 30°14' W 093°15'0 0.0
2017-Sep-16 00:52N 30°14' W 093°15'0 0.0
2017-Sep-16 00:30N 30°14' W 093°15'0 0.0
2017-Sep-15 23:59N 30°14' W 093°15'0 0.0
2017-Sep-15 23:28N 30°14' W 093°15'0 0.0
2017-Sep-15 22:59N 30°14' W 093°15'0 0.0
2017-Sep-15 22:25N 30°14' W 093°15'0 0.0
2017-Sep-15 22:00N 30°14' W 093°15'0 0.0
2017-Sep-15 21:30N 30°14' W 093°15'0 0.0
2017-Sep-15 20:56N 30°14' W 093°15'0 0.0
2017-Sep-15 20:24N 30°14' W 093°15'0 0.0
2017-Sep-15 19:55N 30°14' W 093°15'0 0.0
2017-Sep-15 19:28N 30°14' W 093°15'0 0.0
2017-Sep-15 18:56N 30°14' W 093°15'0 0.0
2017-Sep-15 18:29N 30°14' W 093°15'0 0.0
2017-Sep-15 17:58N 30°14' W 093°15'0 0.0
2017-Sep-15 17:30N 30°14' W 093°15'0 0.0
2017-Sep-15 16:56N 30°14' W 093°15'0 0.0
2017-Sep-15 16:29N 30°14' W 093°15'0 0.0
2017-Sep-15 16:00N 30°14' W 093°15'1 1.3
2017-Sep-15 15:30N 30°14' W 093°16'1 2.4
2017-Sep-15 15:00N 30°12' W 093°16'0 0.3
2017-Sep-15 14:28N 30°12' W 093°16'0 0.0
2017-Sep-15 13:59N 30°12' W 093°16'0 0.0
2017-Sep-15 13:26N 30°12' W 093°16'0 0.0
2017-Sep-15 12:55N 30°12' W 093°16'0 0.0
2017-Sep-15 12:29N 30°12' W 093°16'0 0.0
2017-Sep-15 12:00N 30°12' W 093°16'0 0.0
2017-Sep-15 11:26N 30°12' W 093°16'0 0.0
2017-Sep-15 10:56N 30°12' W 093°16'0 0.0
2017-Sep-15 10:28N 30°12' W 093°16'0 0.0
2017-Sep-15 09:58N 30°12' W 093°16'0 0.0
2017-Sep-15 09:29N 30°12' W 093°16'0 0.0
2017-Sep-15 08:59N 30°12' W 093°16'0 0.0
2017-Sep-15 08:23N 30°12' W 093°16'0 0.0
2017-Sep-15 07:59N 30°12' W 093°16'0 0.0
2017-Sep-15 07:25N 30°12' W 093°16'0 0.0
2017-Sep-15 06:58N 30°12' W 093°16'0 0.0
2017-Sep-15 06:28N 30°12' W 093°16'0 0.0
2017-Sep-15 05:58N 30°12' W 093°16'0 0.0
2017-Sep-15 05:29N 30°12' W 093°16'0 0.0
2017-Sep-15 04:58N 30°12' W 093°16'0 0.0
2017-Sep-15 04:29N 30°12' W 093°16'0 0.0
2017-Sep-15 03:59N 30°12' W 093°16'0 0.0
2017-Sep-15 03:29N 30°12' W 093°16'0 0.0
2017-Sep-15 02:59N 30°12' W 093°16'0 0.0
2017-Sep-15 02:28N 30°12' W 093°16'0 0.0
2017-Sep-15 01:58N 30°12' W 093°16'0 0.0
2017-Sep-15 01:30N 30°12' W 093°16'0 0.0
2017-Sep-15 01:00N 30°12' W 093°16'0 0.0
2017-Sep-15 00:24N 30°12' W 093°16'0 0.0
2017-Sep-15 00:00N 30°12' W 093°16'0 0.0
2017-Sep-14 23:29N 30°12' W 093°16'0 0.0
2017-Sep-14 22:58N 30°12' W 093°16'0 0.0
2017-Sep-14 22:23N 30°12' W 093°16'0 0.0
2017-Sep-14 22:00N 30°12' W 093°16'0 0.0
2017-Sep-14 21:29N 30°12' W 093°16'0 0.0
2017-Sep-14 20:57N 30°12' W 093°16'0 0.0
2017-Sep-14 20:26N 30°12' W 093°16'0 0.0
2017-Sep-14 19:59N 30°12' W 093°16'0 0.0
2017-Sep-14 19:28N 30°12' W 093°16'0 0.0
2017-Sep-14 18:58N 30°12' W 093°16'0 0.0
2017-Sep-14 18:27N 30°12' W 093°16'0 0.0
2017-Sep-14 18:00N 30°12' W 093°16'0 0.0
2017-Sep-14 17:21N 30°12' W 093°16'0 0.0
2017-Sep-14 16:56N 30°12' W 093°16'0 0.0
2017-Sep-14 16:25N 30°12' W 093°16'0 0.0
2017-Sep-14 15:58N 30°12' W 093°16'0 0.0
2017-Sep-14 15:30N 30°12' W 093°16'0 0.0
2017-Sep-14 14:57N 30°12' W 093°16'0 0.0
2017-Sep-14 14:23N 30°12' W 093°16'0 0.0
2017-Sep-14 14:00N 30°12' W 093°16'0 0.0
2017-Sep-14 13:27N 30°12' W 093°16'0 0.0
2017-Sep-14 12:55N 30°12' W 093°16'0 0.0
2017-Sep-14 12:24N 30°12' W 093°16'0 0.0
2017-Sep-14 11:59N 30°12' W 093°16'0 0.0
2017-Sep-14 11:21N 30°12' W 093°16'0 0.0
2017-Sep-14 10:59N 30°12' W 093°16'0 0.0
2017-Sep-14 10:30N 30°12' W 093°16'0 0.0
2017-Sep-14 09:54N 30°12' W 093°16'0 0.0
2017-Sep-14 09:28N 30°12' W 093°16'0 0.0
2017-Sep-14 08:58N 30°12' W 093°16'0 0.0
2017-Sep-14 08:28N 30°12' W 093°16'0 0.0
2017-Sep-14 07:58N 30°12' W 093°16'0 0.0
2017-Sep-14 07:29N 30°12' W 093°16'0 0.0
2017-Sep-14 06:58N 30°12' W 093°16'0 0.0
2017-Sep-14 06:29N 30°12' W 093°16'0 0.0
2017-Sep-14 06:00N 30°12' W 093°16'0 0.0
2017-Sep-14 05:30N 30°12' W 093°16'0 0.0
2017-Sep-14 05:00N 30°12' W 093°16'0 0.0
2017-Sep-14 04:27N 30°12' W 093°16'0 0.0
2017-Sep-14 03:59N 30°12' W 093°16'0 0.0
2017-Sep-14 03:25N 30°12' W 093°16'0 0.0
2017-Sep-14 02:57N 30°12' W 093°16'0 0.0
2017-Sep-14 02:24N 30°12' W 093°16'0 0.0
2017-Sep-14 01:59N 30°12' W 093°16'0 0.0
2017-Sep-14 01:29N 30°12' W 093°16'0 0.0
2017-Sep-14 00:59N 30°12' W 093°16'0 0.0
2017-Sep-14 00:29N 30°12' W 093°16'0 0.0
2017-Sep-13 23:53N 30°12' W 093°16'0 0.0
2017-Sep-13 23:28N 30°12' W 093°16'0 0.0
2017-Sep-13 23:00N 30°12' W 093°16'0 0.0
2017-Sep-13 22:28N 30°12' W 093°16'0 0.0
2017-Sep-13 22:00N 30°12' W 093°16'0 0.0
2017-Sep-13 21:28N 30°12' W 093°16'0 0.0
2017-Sep-13 20:53N 30°12' W 093°16'0 0.0
2017-Sep-13 20:28N 30°12' W 093°16'0 0.0
2017-Sep-13 20:00N 30°12' W 093°16'0 0.1
2017-Sep-13 19:29N 30°12' W 093°16'2 5.1
2017-Sep-13 19:00N 30°11' W 093°19'3 5.2
2017-Sep-13 18:30N 30°09' W 093°20'3 5.5
2017-Sep-13 18:00N 30°06' W 093°20'2 3.1
2017-Sep-13 17:29N 30°04' W 093°20'1 1.6
2017-Sep-13 17:00N 30°05' W 093°20'0 0.0
2017-Sep-13 16:30N 30°05' W 093°20'0 0.0
2017-Sep-13 15:53N 30°05' W 093°20'0 0.0
2017-Sep-13 15:28N 30°05' W 093°20'1 1.5
2017-Sep-13 14:55N 30°04' W 093°20'0 0.0
2017-Sep-13 14:23N 30°04' W 093°20'0 0.0
2017-Sep-13 13:59N 30°04' W 093°20'0 0.0
2017-Sep-13 13:29N 30°04' W 093°20'0 0.0
2017-Sep-13 12:58N 30°04' W 093°20'0 0.0
2017-Sep-13 12:30N 30°04' W 093°20'0 0.0
2017-Sep-13 12:00N 30°04' W 093°20'0 0.0
2017-Sep-13 11:30N 30°04' W 093°20'0 0.0
2017-Sep-13 10:58N 30°04' W 093°20'0 0.0
2017-Sep-13 10:24N 30°04' W 093°20'0 0.0
2017-Sep-13 09:59N 30°04' W 093°20'0 0.0
2017-Sep-13 09:25N 30°04' W 093°20'0 0.0
2017-Sep-13 08:55N 30°04' W 093°20'0 0.0
2017-Sep-13 08:30N 30°04' W 093°20'0 0.0
2017-Sep-13 07:58N 30°04' W 093°20'0 0.0
2017-Sep-13 07:27N 30°04' W 093°20'0 0.0
2017-Sep-13 07:00N 30°04' W 093°20'0 0.0
2017-Sep-13 06:28N 30°04' W 093°20'0 0.0
2017-Sep-13 05:57N 30°04' W 093°20'0 0.0
2017-Sep-13 05:27N 30°04' W 093°20'0 0.0
2017-Sep-13 04:59N 30°04' W 093°20'0 0.0
2017-Sep-13 04:28N 30°04' W 093°20'0 0.0
2017-Sep-13 03:59N 30°04' W 093°20'0 0.0
2017-Sep-13 03:28N 30°04' W 093°20'0 0.0
2017-Sep-13 02:59N 30°04' W 093°20'0 0.0
2017-Sep-13 02:23N 30°04' W 093°20'0 0.0
2017-Sep-13 01:58N 30°04' W 093°20'0 0.0
2017-Sep-13 01:30N 30°04' W 093°20'0 0.0
2017-Sep-13 01:00N 30°04' W 093°20'0 0.0
2017-Sep-13 00:26N 30°04' W 093°20'0 0.0
2017-Sep-12 23:58N 30°04' W 093°20'0 0.0
2017-Sep-12 23:30N 30°04' W 093°20'0 0.0
2017-Sep-12 22:59N 30°04' W 093°20'0 0.0
2017-Sep-12 22:25N 30°04' W 093°20'0 0.0
2017-Sep-12 21:58N 30°04' W 093°20'0 0.0
2017-Sep-12 21:29N 30°04' W 093°20'0 0.0
2017-Sep-12 20:54N 30°04' W 093°20'0 0.0
2017-Sep-12 20:24N 30°04' W 093°20'0 0.0
2017-Sep-12 19:58N 30°04' W 093°20'0 0.0
2017-Sep-12 19:30N 30°04' W 093°20'0 0.0
2017-Sep-12 18:56N 30°04' W 093°20'0 0.0
2017-Sep-12 18:30N 30°04' W 093°20'0 0.0
2017-Sep-12 18:00N 30°04' W 093°20'0 0.0
2017-Sep-12 17:26N 30°04' W 093°20'0 0.0
2017-Sep-12 16:59N 30°04' W 093°20'0 0.0
2017-Sep-12 16:29N 30°04' W 093°20'0 0.0
2017-Sep-12 15:59N 30°04' W 093°20'0 0.0
2017-Sep-12 15:29N 30°04' W 093°20'0 0.0
2017-Sep-12 14:55N 30°04' W 093°20'0 0.0
2017-Sep-12 14:25N 30°04' W 093°20'0 0.0
2017-Sep-12 06:15N 30°04' W 093°20'0 0.0
2017-Sep-12 05:58N 30°04' W 093°20'0 0.0
2017-Sep-12 05:27N 30°04' W 093°20'0 0.0
2017-Sep-12 04:59N 30°04' W 093°20'0 0.0
2017-Sep-12 04:28N 30°04' W 093°20'0 0.0
2017-Sep-12 04:00N 30°04' W 093°20'0 0.0
2017-Sep-12 03:28N 30°04' W 093°20'0 0.0
2017-Sep-12 03:00N 30°04' W 093°20'0 0.0
2017-Sep-12 02:24N 30°04' W 093°20'0 0.0
2017-Sep-12 01:59N 30°04' W 093°20'0 0.0
2017-Sep-12 01:29N 30°04' W 093°20'0 0.0
2017-Sep-12 00:58N 30°04' W 093°20'0 0.0
2017-Sep-12 00:28N 30°04' W 093°20'0 0.0
2017-Sep-11 23:58N 30°04' W 093°20'0 0.0
2017-Sep-11 23:29N 30°04' W 093°20'0 0.0
2017-Sep-11 23:00N 30°04' W 093°20'0 0.0
2017-Sep-11 22:30N 30°04' W 093°20'0 0.0
2017-Sep-11 21:59N 30°04' W 093°20'0 0.0
2017-Sep-11 21:30N 30°04' W 093°20'0 0.0
2017-Sep-11 20:59N 30°04' W 093°20'0 0.0
2017-Sep-11 20:24N 30°04' W 093°20'0 0.0
2017-Sep-11 19:59N 30°04' W 093°20'0 0.0
2017-Sep-11 19:27N 30°04' W 093°20'0 0.0
2017-Sep-11 18:59N 30°04' W 093°20'0 0.0
2017-Sep-11 18:27N 30°04' W 093°20'0 0.0
2017-Sep-11 17:59N 30°04' W 093°20'0 0.0
2017-Sep-11 17:29N 30°04' W 093°20'0 0.0
2017-Sep-11 16:54N 30°04' W 093°20'0 0.0
2017-Sep-11 16:30N 30°04' W 093°20'0 0.0
2017-Sep-11 15:58N 30°04' W 093°20'0 0.0
2017-Sep-11 15:27N 30°04' W 093°20'0 0.0
2017-Sep-11 14:50N 30°04' W 093°20'0 0.0
2017-Sep-11 14:24N 30°04' W 093°20'0 0.0
2017-Sep-11 13:59N 30°04' W 093°20'0 0.0
2017-Sep-11 13:24N 30°04' W 093°20'0 0.0
2017-Sep-11 11:59N 30°04' W 093°20'0 0.0
2017-Sep-11 11:28N 30°04' W 093°20'0 0.0
2017-Sep-11 10:57N 30°04' W 093°20'0 0.0
2017-Sep-11 09:56N 30°04' W 093°20'0 0.0
2017-Sep-11 09:28N 30°04' W 093°20'0 0.0
2017-Sep-11 08:58N 30°04' W 093°20'0 0.0
2017-Sep-11 08:23N 30°04' W 093°20'0 0.0
2017-Sep-11 07:58N 30°04' W 093°20'0 0.0
2017-Sep-11 07:24N 30°04' W 093°20'0 0.0
2017-Sep-11 06:16N 30°04' W 093°20'0 0.0
2017-Sep-11 05:56N 30°04' W 093°20'0 0.0
2017-Sep-11 05:28N 30°04' W 093°20'0 0.0
2017-Sep-11 05:00N 30°04' W 093°20'0 0.0
2017-Sep-11 04:16N 30°04' W 093°20'0 0.0
2017-Sep-11 03:51N 30°04' W 093°20'0 0.0
2017-Sep-11 03:28N 30°04' W 093°20'0 0.0
2017-Sep-11 02:51N 30°04' W 093°20'0 0.0
2017-Sep-11 02:17N 30°04' W 093°20'0 0.0
2017-Sep-11 01:52N 30°04' W 093°20'0 0.0
2017-Sep-11 01:28N 30°04' W 093°20'0 0.0
2017-Sep-11 00:54N 30°04' W 093°20'0 0.0
2017-Sep-11 00:30N 30°04' W 093°20'0 0.0
2017-Sep-10 23:59N 30°04' W 093°20'0 0.0
2017-Sep-10 23:28N 30°04' W 093°20'0 0.0
2017-Sep-10 22:58N 30°04' W 093°20'0 0.0
2017-Sep-10 22:30N 30°04' W 093°20'0 0.0
2017-Sep-10 22:00N 30°04' W 093°20'0 0.0
2017-Sep-10 21:28N 30°04' W 093°20'0 0.0
2017-Sep-10 20:54N 30°04' W 093°20'0 0.0
2017-Sep-10 20:23N 30°04' W 093°20'0 0.0
2017-Sep-10 20:00N 30°04' W 093°20'0 0.0
2017-Sep-10 19:28N 30°04' W 093°20'0 0.0
2017-Sep-10 18:55N 30°04' W 093°20'0 0.0
2017-Sep-10 18:25N 30°04' W 093°20'0 0.0
2017-Sep-10 17:52N 30°04' W 093°20'0 0.0
2017-Sep-10 17:30N 30°04' W 093°20'0 0.0
2017-Sep-10 16:59N 30°04' W 093°20'0 0.0
2017-Sep-10 16:29N 30°04' W 093°20'2 3.4
2017-Sep-10 16:00N 30°06' W 093°19'1 2.1
2017-Sep-10 15:30N 30°06' W 093°18'0 0.0
2017-Sep-10 14:59N 30°06' W 093°18'0 0.0
2017-Sep-10 13:58N 30°06' W 093°18'2 2.1
2017-Sep-10 12:50N 30°05' W 093°20'0 0.9
2017-Sep-10 12:28N 30°04' W 093°20'5 2.3
2017-Sep-10 10:17N 30°04' W 093°26'2 6.7
2017-Sep-10 10:00N 30°04' W 093°28'4 7.0
2017-Sep-10 09:30N 30°04' W 093°32'3 1.2
2017-Sep-10 06:44N 30°03' W 093°36'1 4.8
2017-Sep-10 06:28N 30°04' W 093°38'3 6.1
2017-Sep-10 06:00N 30°03' W 093°41'  
Track history (hours):
 
Tides and Currents Weather Stations Pressure Air Temp Water Temp Dewpoint Dewpoint Depression Visibility Wind Speed Wind Dir Waves Ship Positions

Richard Gonsoulin II

Owner: LeBeouf Bros. Towing, LLC, Houma, LA. More information available from US FCC via Universal Licensing System and Coast Guard Vessel Documentation Center.

Last reported at 2017-Sep-20 02:59 UTC. Time now 2017-Sep-24 17:37 UTC.
Position N 29°33' W 094°54'.

Length 22 m; draft 3 m.

Type: Tug. MMSI: 367301310.

Date/timePositionNaut miles runAvg speedWind from/ knotsBaromVisibWave heightAir tempDewpointWater temp
2017-Sep-20 02:59N 29°33' W 094°54'3 5.8
2017-Sep-20 02:31N 29°35' W 094°56'3 6.0
2017-Sep-20 02:01N 29°38' W 094°58'3 5.5
2017-Sep-20 01:30N 29°40' W 094°59'3 5.3
2017-Sep-20 01:00N 29°42' W 095°01'1 0.3
2017-Sep-19 22:42N 29°42' W 095°02'1 5.1
2017-Sep-19 22:27N 29°44' W 095°01'5 6.3
2017-Sep-19 21:43N 29°44' W 095°07'3 0.4
2017-Sep-19 15:44N 29°45' W 095°04'3 6.0
2017-Sep-19 15:18N 29°43' W 095°01'2 0.3
2017-Sep-19 09:15N 29°42' W 095°03'0 0.0
2017-Sep-19 08:54N 29°42' W 095°03'0 0.0
2017-Sep-19 05:46N 29°42' W 095°03'2 0.1
2017-Sep-18 17:24N 29°42' W 095°01'0 0.0
2017-Sep-17 15:58N 29°42' W 095°01'2 4.6
2017-Sep-17 15:30N 29°41' W 094°59'2 5.0
2017-Sep-17 15:00N 29°39' W 094°58'1 1.3
2017-Sep-17 14:26N 29°38' W 094°58'2 4.7
2017-Sep-17 14:00N 29°36' W 094°57'3 5.8
2017-Sep-17 13:30N 29°34' W 094°55'40 3.8
2017-Sep-17 02:59N 29°41' W 094°10'2 4.7
2017-Sep-17 02:30N 29°43' W 094°08'2 4.7
2017-Sep-17 02:00N 29°44' W 094°06'3 4.6
2017-Sep-17 01:27N 29°46' W 094°03'32 5.0
2017-Sep-16 18:56N 30°04' W 093°32'2 4.4
2017-Sep-16 18:30N 30°04' W 093°30'2 4.4
2017-Sep-16 18:00N 30°04' W 093°27'2 3.8
2017-Sep-16 17:30N 30°04' W 093°25'2 4.4
2017-Sep-16 17:00N 30°04' W 093°23'2 3.2
2017-Sep-16 16:30N 30°04' W 093°21'2 4.0
2017-Sep-16 16:00N 30°06' W 093°20'3 5.2
2017-Sep-16 15:31N 30°08' W 093°20'3 5.4
2017-Sep-16 15:01N 30°11' W 093°19'3 5.7
2017-Sep-16 14:30N 30°12' W 093°16'1 2.2
2017-Sep-16 13:59N 30°13' W 093°16'0 0.6
2017-Sep-16 13:29N 30°14' W 093°15'0 0.5
2017-Sep-16 12:58N 30°14' W 093°15'0 0.0
2017-Sep-16 12:30N 30°14' W 093°15'0 0.0
2017-Sep-16 11:53N 30°14' W 093°15'0 0.0
2017-Sep-16 11:28N 30°14' W 093°15'0 0.0
2017-Sep-16 11:00N 30°14' W 093°15'0 0.0
2017-Sep-16 10:30N 30°14' W 093°15'0 0.0
2017-Sep-16 10:00N 30°14' W 093°15'0 0.0
2017-Sep-16 09:28N 30°14' W 093°15'0 0.0
2017-Sep-16 08:56N 30°14' W 093°15'0 0.0
2017-Sep-16 08:29N 30°14' W 093°15'0 0.0
2017-Sep-16 07:59N 30°14' W 093°15'0 0.0
2017-Sep-16 07:26N 30°14' W 093°15'0 0.0
2017-Sep-16 06:58N 30°14' W 093°15'0 0.0
2017-Sep-16 06:23N 30°14' W 093°15'0 0.0
2017-Sep-16 05:52N 30°14' W 093°15'0 0.0
2017-Sep-16 05:29N 30°14' W 093°15'0 0.0
2017-Sep-16 04:57N 30°14' W 093°15'0 0.0
2017-Sep-16 04:25N 30°14' W 093°15'0 0.0
2017-Sep-16 03:53N 30°14' W 093°15'0 0.0
2017-Sep-16 03:27N 30°14' W 093°15'0 0.0
2017-Sep-16 02:52N 30°14' W 093°15'0 0.0
2017-Sep-16 02:25N 30°14' W 093°15'0 0.0
2017-Sep-16 01:59N 30°14' W 093°15'0 0.0
2017-Sep-16 01:23N 30°14' W 093°15'0 0.0
2017-Sep-16 00:52N 30°14' W 093°15'0 0.0
2017-Sep-16 00:30N 30°14' W 093°15'0 0.0
2017-Sep-15 23:59N 30°14' W 093°15'0 0.0
2017-Sep-15 23:28N 30°14' W 093°15'0 0.0
2017-Sep-15 22:59N 30°14' W 093°15'0 0.0
2017-Sep-15 22:25N 30°14' W 093°15'0 0.0
2017-Sep-15 22:00N 30°14' W 093°15'0 0.0
2017-Sep-15 21:30N 30°14' W 093°15'0 0.0
2017-Sep-15 20:56N 30°14' W 093°15'0 0.0
2017-Sep-15 20:24N 30°14' W 093°15'0 0.0
2017-Sep-15 19:55N 30°14' W 093°15'0 0.0
2017-Sep-15 19:28N 30°14' W 093°15'0 0.0
2017-Sep-15 18:56N 30°14' W 093°15'0 0.0
2017-Sep-15 18:29N 30°14' W 093°15'0 0.0
2017-Sep-15 17:58N 30°14' W 093°15'0 0.0
2017-Sep-15 17:30N 30°14' W 093°15'0 0.0
2017-Sep-15 16:56N 30°14' W 093°15'0 0.0
2017-Sep-15 16:29N 30°14' W 093°15'0 0.0
2017-Sep-15 16:00N 30°14' W 093°15'1 1.3
2017-Sep-15 15:30N 30°14' W 093°16'1 2.4
2017-Sep-15 15:00N 30°12' W 093°16'0 0.3
2017-Sep-15 14:28N 30°12' W 093°16'0 0.0
2017-Sep-15 13:59N 30°12' W 093°16'0 0.0
2017-Sep-15 13:26N 30°12' W 093°16'0 0.0
2017-Sep-15 12:55N 30°12' W 093°16'0 0.0
2017-Sep-15 12:29N 30°12' W 093°16'0 0.0
2017-Sep-15 12:00N 30°12' W 093°16'0 0.0
2017-Sep-15 11:26N 30°12' W 093°16'0 0.0
2017-Sep-15 10:56N 30°12' W 093°16'0 0.0
2017-Sep-15 10:28N 30°12' W 093°16'0 0.0
2017-Sep-15 09:58N 30°12' W 093°16'0 0.0
2017-Sep-15 09:29N 30°12' W 093°16'0 0.0
2017-Sep-15 08:59N 30°12' W 093°16'0 0.0
2017-Sep-15 08:23N 30°12' W 093°16'0 0.0
2017-Sep-15 07:59N 30°12' W 093°16'0 0.0
2017-Sep-15 07:25N 30°12' W 093°16'0 0.0
2017-Sep-15 06:58N 30°12' W 093°16'0 0.0
2017-Sep-15 06:28N 30°12' W 093°16'0 0.0
2017-Sep-15 05:58N 30°12' W 093°16'0 0.0
2017-Sep-15 05:29N 30°12' W 093°16'0 0.0
2017-Sep-15 04:58N 30°12' W 093°16'0 0.0
2017-Sep-15 04:29N 30°12' W 093°16'0 0.0
2017-Sep-15 03:59N 30°12' W 093°16'0 0.0
2017-Sep-15 03:29N 30°12' W 093°16'0 0.0
2017-Sep-15 02:59N 30°12' W 093°16'0 0.0
2017-Sep-15 02:28N 30°12' W 093°16'0 0.0
2017-Sep-15 01:58N 30°12' W 093°16'0 0.0
2017-Sep-15 01:30N 30°12' W 093°16'0 0.0
2017-Sep-15 01:00N 30°12' W 093°16'0 0.0
2017-Sep-15 00:24N 30°12' W 093°16'0 0.0
2017-Sep-15 00:00N 30°12' W 093°16'0 0.0
2017-Sep-14 23:29N 30°12' W 093°16'0 0.0
2017-Sep-14 22:58N 30°12' W 093°16'0 0.0
2017-Sep-14 22:23N 30°12' W 093°16'0 0.0
2017-Sep-14 22:00N 30°12' W 093°16'0 0.0
2017-Sep-14 21:29N 30°12' W 093°16'0 0.0
2017-Sep-14 20:57N 30°12' W 093°16'0 0.0
2017-Sep-14 20:26N 30°12' W 093°16'0 0.0
2017-Sep-14 19:59N 30°12' W 093°16'0 0.0
2017-Sep-14 19:28N 30°12' W 093°16'0 0.0
2017-Sep-14 18:58N 30°12' W 093°16'0 0.0
2017-Sep-14 18:27N 30°12' W 093°16'0 0.0
2017-Sep-14 18:00N 30°12' W 093°16'0 0.0
2017-Sep-14 17:21N 30°12' W 093°16'0 0.0
2017-Sep-14 16:56N 30°12' W 093°16'0 0.0
2017-Sep-14 16:25N 30°12' W 093°16'0 0.0
2017-Sep-14 15:58N 30°12' W 093°16'0 0.0
2017-Sep-14 15:30N 30°12' W 093°16'0 0.0
2017-Sep-14 14:57N 30°12' W 093°16'0 0.0
2017-Sep-14 14:23N 30°12' W 093°16'0 0.0
2017-Sep-14 14:00N 30°12' W 093°16'0 0.0
2017-Sep-14 13:27N 30°12' W 093°16'0 0.0
2017-Sep-14 12:55N 30°12' W 093°16'0 0.0
2017-Sep-14 12:24N 30°12' W 093°16'0 0.0
2017-Sep-14 11:59N 30°12' W 093°16'0 0.0
2017-Sep-14 11:21N 30°12' W 093°16'0 0.0
2017-Sep-14 10:59N 30°12' W 093°16'0 0.0
2017-Sep-14 10:30N 30°12' W 093°16'0 0.0
2017-Sep-14 09:54N 30°12' W 093°16'0 0.0
2017-Sep-14 09:28N 30°12' W 093°16'0 0.0
2017-Sep-14 08:58N 30°12' W 093°16'0 0.0
2017-Sep-14 08:28N 30°12' W 093°16'0 0.0
2017-Sep-14 07:58N 30°12' W 093°16'0 0.0
2017-Sep-14 07:29N 30°12' W 093°16'0 0.0
2017-Sep-14 06:58N 30°12' W 093°16'0 0.0
2017-Sep-14 06:29N 30°12' W 093°16'0 0.0
2017-Sep-14 06:00N 30°12' W 093°16'0 0.0
2017-Sep-14 05:30N 30°12' W 093°16'0 0.0
2017-Sep-14 05:00N 30°12' W 093°16'0 0.0
2017-Sep-14 04:27N 30°12' W 093°16'0 0.0
2017-Sep-14 03:59N 30°12' W 093°16'0 0.0
2017-Sep-14 03:25N 30°12' W 093°16'0 0.0
2017-Sep-14 02:57N 30°12' W 093°16'0 0.0
2017-Sep-14 02:24N 30°12' W 093°16'0 0.0
2017-Sep-14 01:59N 30°12' W 093°16'0 0.0
2017-Sep-14 01:29N 30°12' W 093°16'0 0.0
2017-Sep-14 00:59N 30°12' W 093°16'0 0.0
2017-Sep-14 00:29N 30°12' W 093°16'0 0.0
2017-Sep-13 23:53N 30°12' W 093°16'0 0.0
2017-Sep-13 23:28N 30°12' W 093°16'0 0.0
2017-Sep-13 23:00N 30°12' W 093°16'0 0.0
2017-Sep-13 22:28N 30°12' W 093°16'0 0.0
2017-Sep-13 22:00N 30°12' W 093°16'0 0.0
2017-Sep-13 21:28N 30°12' W 093°16'0 0.0
2017-Sep-13 20:53N 30°12' W 093°16'0 0.0
2017-Sep-13 20:28N 30°12' W 093°16'0 0.0
2017-Sep-13 20:00N 30°12' W 093°16'0 0.1
2017-Sep-13 19:29N 30°12' W 093°16'2 5.1
2017-Sep-13 19:00N 30°11' W 093°19'3 5.2
2017-Sep-13 18:30N 30°09' W 093°20'3 5.5
2017-Sep-13 18:00N 30°06' W 093°20'2 3.1
2017-Sep-13 17:29N 30°04' W 093°20'1 1.6
2017-Sep-13 17:00N 30°05' W 093°20'0 0.0
2017-Sep-13 16:30N 30°05' W 093°20'0 0.0
2017-Sep-13 15:53N 30°05' W 093°20'0 0.0
2017-Sep-13 15:28N 30°05' W 093°20'1 1.5
2017-Sep-13 14:55N 30°04' W 093°20'0 0.0
2017-Sep-13 14:23N 30°04' W 093°20'0 0.0
2017-Sep-13 13:59N 30°04' W 093°20'0 0.0
2017-Sep-13 13:29N 30°04' W 093°20'0 0.0
2017-Sep-13 12:58N 30°04' W 093°20'0 0.0
2017-Sep-13 12:30N 30°04' W 093°20'0 0.0
2017-Sep-13 12:00N 30°04' W 093°20'0 0.0
2017-Sep-13 11:30N 30°04' W 093°20'0 0.0
2017-Sep-13 10:58N 30°04' W 093°20'0 0.0
2017-Sep-13 10:24N 30°04' W 093°20'0 0.0
2017-Sep-13 09:59N 30°04' W 093°20'0 0.0
2017-Sep-13 09:25N 30°04' W 093°20'0 0.0
2017-Sep-13 08:55N 30°04' W 093°20'0 0.0
2017-Sep-13 08:30N 30°04' W 093°20'0 0.0
2017-Sep-13 07:58N 30°04' W 093°20'0 0.0
2017-Sep-13 07:27N 30°04' W 093°20'0 0.0
2017-Sep-13 07:00N 30°04' W 093°20'0 0.0
2017-Sep-13 06:28N 30°04' W 093°20'0 0.0
2017-Sep-13 05:57N 30°04' W 093°20'0 0.0
2017-Sep-13 05:27N 30°04' W 093°20'0 0.0
2017-Sep-13 04:59N 30°04' W 093°20'0 0.0
2017-Sep-13 04:28N 30°04' W 093°20'0 0.0
2017-Sep-13 03:59N 30°04' W 093°20'0 0.0
2017-Sep-13 03:28N 30°04' W 093°20'0 0.0
2017-Sep-13 02:59N 30°04' W 093°20'0 0.0
2017-Sep-13 02:23N 30°04' W 093°20'0 0.0
2017-Sep-13 01:58N 30°04' W 093°20'0 0.0
2017-Sep-13 01:30N 30°04' W 093°20'0 0.0
2017-Sep-13 01:00N 30°04' W 093°20'0 0.0
2017-Sep-13 00:26N 30°04' W 093°20'0 0.0
2017-Sep-12 23:58N 30°04' W 093°20'0 0.0
2017-Sep-12 23:30N 30°04' W 093°20'0 0.0
2017-Sep-12 22:59N 30°04' W 093°20'0 0.0
2017-Sep-12 22:25N 30°04' W 093°20'0 0.0
2017-Sep-12 21:58N 30°04' W 093°20'0 0.0
2017-Sep-12 21:29N 30°04' W 093°20'0 0.0
2017-Sep-12 20:54N 30°04' W 093°20'0 0.0
2017-Sep-12 20:24N 30°04' W 093°20'0 0.0
2017-Sep-12 19:58N 30°04' W 093°20'0 0.0
2017-Sep-12 19:30N 30°04' W 093°20'0 0.0
2017-Sep-12 18:56N 30°04' W 093°20'0 0.0
2017-Sep-12 18:30N 30°04' W 093°20'0 0.0
2017-Sep-12 18:00N 30°04' W 093°20'0 0.0
2017-Sep-12 17:26N 30°04' W 093°20'0 0.0
2017-Sep-12 16:59N 30°04' W 093°20'0 0.0
2017-Sep-12 16:29N 30°04' W 093°20'0 0.0
2017-Sep-12 15:59N 30°04' W 093°20'0 0.0
2017-Sep-12 15:29N 30°04' W 093°20'0 0.0
2017-Sep-12 14:55N 30°04' W 093°20'0 0.0
2017-Sep-12 14:25N 30°04' W 093°20'0 0.0
2017-Sep-12 06:15N 30°04' W 093°20'0 0.0
2017-Sep-12 05:58N 30°04' W 093°20'0 0.0
2017-Sep-12 05:27N 30°04' W 093°20'0 0.0
2017-Sep-12 04:59N 30°04' W 093°20'0 0.0
2017-Sep-12 04:28N 30°04' W 093°20'0 0.0
2017-Sep-12 04:00N 30°04' W 093°20'0 0.0
2017-Sep-12 03:28N 30°04' W 093°20'0 0.0
2017-Sep-12 03:00N 30°04' W 093°20'0 0.0
2017-Sep-12 02:24N 30°04' W 093°20'0 0.0
2017-Sep-12 01:59N 30°04' W 093°20'0 0.0
2017-Sep-12 01:29N 30°04' W 093°20'0 0.0
2017-Sep-12 00:58N 30°04' W 093°20'0 0.0
2017-Sep-12 00:28N 30°04' W 093°20'0 0.0
2017-Sep-11 23:58N 30°04' W 093°20'0 0.0
2017-Sep-11 23:29N 30°04' W 093°20'0 0.0
2017-Sep-11 23:00N 30°04' W 093°20'0 0.0
2017-Sep-11 22:30N 30°04' W 093°20'0 0.0
2017-Sep-11 21:59N 30°04' W 093°20'0 0.0
2017-Sep-11 21:30N 30°04' W 093°20'0 0.0
2017-Sep-11 20:59N 30°04' W 093°20'0 0.0
2017-Sep-11 20:24N 30°04' W 093°20'0 0.0
2017-Sep-11 19:59N 30°04' W 093°20'0 0.0
2017-Sep-11 19:27N 30°04' W 093°20'0 0.0
2017-Sep-11 18:59N 30°04' W 093°20'0 0.0
2017-Sep-11 18:27N 30°04' W 093°20'0 0.0
2017-Sep-11 17:59N 30°04' W 093°20'0 0.0
2017-Sep-11 17:29N 30°04' W 093°20'0 0.0
2017-Sep-11 16:54N 30°04' W 093°20'0 0.0
2017-Sep-11 16:30N 30°04' W 093°20'0 0.0
2017-Sep-11 15:58N 30°04' W 093°20'0 0.0
2017-Sep-11 15:27N 30°04' W 093°20'0 0.0
2017-Sep-11 14:50N 30°04' W 093°20'0 0.0
2017-Sep-11 14:24N 30°04' W 093°20'0 0.0
2017-Sep-11 13:59N 30°04' W 093°20'0 0.0
2017-Sep-11 13:24N 30°04' W 093°20'0 0.0
2017-Sep-11 11:59N 30°04' W 093°20'0 0.0
2017-Sep-11 11:28N 30°04' W 093°20'0 0.0
2017-Sep-11 10:57N 30°04' W 093°20'0 0.0
2017-Sep-11 09:56N 30°04' W 093°20'0 0.0
2017-Sep-11 09:28N 30°04' W 093°20'0 0.0
2017-Sep-11 08:58N 30°04' W 093°20'0 0.0
2017-Sep-11 08:23N 30°04' W 093°20'0 0.0
2017-Sep-11 07:58N 30°04' W 093°20'0 0.0
2017-Sep-11 07:24N 30°04' W 093°20'0 0.0
2017-Sep-11 06:16N 30°04' W 093°20'0 0.0
2017-Sep-11 05:56N 30°04' W 093°20'0 0.0
2017-Sep-11 05:28N 30°04' W 093°20'0 0.0
2017-Sep-11 05:00N 30°04' W 093°20'0 0.0
2017-Sep-11 04:16N 30°04' W 093°20'0 0.0
2017-Sep-11 03:51N 30°04' W 093°20'0 0.0
2017-Sep-11 03:28N 30°04' W 093°20'0 0.0
2017-Sep-11 02:51N 30°04' W 093°20'0 0.0
2017-Sep-11 02:17N 30°04' W 093°20'0 0.0
2017-Sep-11 01:52N 30°04' W 093°20'0 0.0
2017-Sep-11 01:28N 30°04' W 093°20'0 0.0
2017-Sep-11 00:54N 30°04' W 093°20'0 0.0
2017-Sep-11 00:30N 30°04' W 093°20'0 0.0
2017-Sep-10 23:59N 30°04' W 093°20'0 0.0
2017-Sep-10 23:28N 30°04' W 093°20'0 0.0
2017-Sep-10 22:58N 30°04' W 093°20'0 0.0
2017-Sep-10 22:30N 30°04' W 093°20'0 0.0
2017-Sep-10 22:00N 30°04' W 093°20'0 0.0
2017-Sep-10 21:28N 30°04' W 093°20'0 0.0
2017-Sep-10 20:54N 30°04' W 093°20'0 0.0
2017-Sep-10 20:23N 30°04' W 093°20'0 0.0
2017-Sep-10 20:00N 30°04' W 093°20'0 0.0
2017-Sep-10 19:28N 30°04' W 093°20'0 0.0
2017-Sep-10 18:55N 30°04' W 093°20'0 0.0
2017-Sep-10 18:25N 30°04' W 093°20'0 0.0
2017-Sep-10 17:52N 30°04' W 093°20'0 0.0
2017-Sep-10 17:30N 30°04' W 093°20'0 0.0
2017-Sep-10 16:59N 30°04' W 093°20'0 0.0
2017-Sep-10 16:29N 30°04' W 093°20'2 3.4
2017-Sep-10 16:00N 30°06' W 093°19'1 2.1
2017-Sep-10 15:30N 30°06' W 093°18'0 0.0
2017-Sep-10 14:59N 30°06' W 093°18'0 0.0
2017-Sep-10 13:58N 30°06' W 093°18'2 2.1
2017-Sep-10 12:50N 30°05' W 093°20'0 0.9
2017-Sep-10 12:28N 30°04' W 093°20'5 2.3
2017-Sep-10 10:17N 30°04' W 093°26'2 6.7
2017-Sep-10 10:00N 30°04' W 093°28'4 7.0
2017-Sep-10 09:30N 30°04' W 093°32'3 1.2
2017-Sep-10 06:44N 30°03' W 093°36'1 4.8
2017-Sep-10 06:28N 30°04' W 093°38'3 6.1
2017-Sep-10 06:00N 30°03' W 093°41'  

Dump ship's entire track history